createdAt,value
2023-02-19T00:02:10.436Z,61.14
2023-02-19T00:04:37.439Z,61.09
2023-02-19T00:07:05.665Z,61.16
2023-02-19T00:09:32.614Z,61.22
2023-02-19T00:11:59.548Z,60.99
2023-02-19T00:14:26.485Z,61.02
2023-02-19T00:16:53.459Z,60.80
2023-02-19T00:19:21.100Z,61.09
2023-02-19T00:21:51.070Z,61.26
2023-02-19T00:24:18.586Z,61.06
2023-02-19T00:26:46.934Z,61.07
2023-02-19T00:29:20.124Z,61.19
2023-02-19T00:31:48.248Z,61.18
2023-02-19T00:34:15.384Z,61.26
2023-02-19T00:36:43.527Z,61.35
2023-02-19T00:39:14.666Z,61.32
2023-02-19T00:41:41.875Z,61.00
2023-02-19T00:44:10.599Z,60.98
2023-02-19T00:46:40.364Z,61.14
2023-02-19T00:49:15.181Z,61.06
2023-02-19T00:51:42.023Z,61.18
2023-02-19T00:54:10.976Z,61.02
2023-02-19T00:56:38.066Z,60.97
2023-02-19T00:59:05.710Z,61.02
2023-02-19T01:01:32.702Z,61.13
2023-02-19T01:03:59.573Z,61.13
2023-02-19T01:06:29.354Z,61.33
2023-02-19T01:08:56.379Z,61.24
2023-02-19T01:11:23.690Z,61.17
2023-02-19T01:13:50.675Z,61.29
2023-02-19T01:16:24.290Z,61.25
2023-02-19T01:18:51.558Z,61.48
2023-02-19T01:21:24.980Z,61.47
2023-02-19T01:23:52.646Z,61.75
2023-02-19T01:26:22.578Z,61.76
2023-02-19T01:28:49.661Z,61.62
2023-02-19T01:31:20.150Z,61.69
2023-02-19T01:33:49.675Z,61.89
2023-02-19T01:36:17.266Z,61.81
2023-02-19T01:38:45.153Z,62.15
2023-02-19T01:41:24.803Z,62.47
2023-02-19T01:43:57.784Z,62.44
2023-02-19T01:46:26.873Z,62.41
2023-02-19T01:48:57.009Z,62.55
2023-02-19T01:51:24.411Z,62.59
2023-02-19T01:53:56.545Z,62.80
2023-02-19T01:56:26.430Z,62.68
2023-02-19T01:58:53.965Z,62.52
2023-02-19T02:01:20.988Z,62.56
2023-02-19T02:03:49.266Z,62.42
2023-02-19T02:06:23.467Z,62.75
2023-02-19T02:09:11.806Z,62.64
2023-02-19T02:11:42.198Z,62.51
2023-02-19T02:14:09.458Z,62.80
2023-02-19T02:16:52.737Z,62.73
2023-02-19T02:19:48.833Z,62.88
2023-02-19T02:22:39.532Z,62.89
2023-02-19T02:25:24.694Z,63.13
2023-02-19T02:28:14.166Z,63.11
2023-02-19T02:30:46.754Z,63.36
2023-02-19T02:33:36.080Z,63.35
2023-02-19T02:36:21.700Z,63.50
2023-02-19T02:38:49.686Z,63.57
2023-02-19T02:41:20.347Z,63.50
2023-02-19T02:43:47.417Z,63.75
2023-02-19T02:46:22.163Z,63.42
2023-02-19T02:48:56.315Z,63.69
2023-02-19T02:51:35.074Z,63.56
2023-02-19T02:54:34.547Z,63.73
2023-02-19T02:57:08.816Z,63.56
2023-02-19T02:59:39.252Z,63.49
2023-02-19T03:02:18.241Z,63.61
2023-02-19T03:05:26.106Z,63.58
2023-02-19T03:08:05.371Z,63.49
2023-02-19T03:10:41.122Z,63.71
2023-02-19T03:13:43.181Z,63.55
2023-02-19T03:16:40.567Z,63.38
2023-02-19T03:19:19.531Z,63.39
2023-02-19T03:22:11.128Z,63.48
2023-02-19T03:25:00.906Z,63.52
2023-02-19T03:27:31.913Z,63.65
2023-02-19T03:30:08.014Z,63.82
2023-02-19T03:32:53.363Z,64.19
2023-02-19T03:35:27.326Z,64.12
2023-02-19T03:38:06.878Z,64.45
2023-02-19T03:40:43.555Z,64.51
2023-02-19T03:43:20.561Z,64.53
2023-02-19T03:45:54.584Z,64.76
2023-02-19T03:48:27.172Z,65.31
2023-02-19T03:51:05.590Z,65.32
2023-02-19T03:53:32.553Z,65.37
2023-02-19T03:56:09.496Z,66.30
2023-02-19T03:58:53.413Z,66.42
2023-02-19T04:01:29.931Z,66.27
2023-02-19T04:04:05.630Z,66.27
2023-02-19T04:06:34.410Z,66.32
2023-02-19T04:09:05.891Z,66.45
2023-02-19T04:11:33.242Z,66.48
2023-02-19T04:14:19.742Z,66.25
2023-02-19T04:16:52.536Z,66.23
2023-02-19T04:19:23.162Z,66.26
2023-02-19T04:21:52.558Z,66.03
2023-02-19T04:24:26.889Z,65.83
2023-02-19T04:26:54.823Z,65.77
2023-02-19T04:29:21.928Z,65.79
2023-02-19T04:31:49.150Z,65.60
2023-02-19T04:34:16.230Z,65.52
2023-02-19T04:36:43.271Z,65.60
2023-02-19T04:39:10.426Z,65.57
2023-02-19T04:41:37.425Z,65.62
2023-02-19T04:44:04.615Z,65.42
2023-02-19T04:46:31.614Z,65.44
2023-02-19T04:48:58.530Z,65.45
2023-02-19T04:51:25.468Z,65.52
2023-02-19T04:53:52.460Z,65.86
2023-02-19T04:56:19.660Z,65.93
2023-02-19T04:58:46.669Z,66.04
2023-02-19T05:01:14.261Z,65.85
2023-02-19T05:03:41.747Z,65.62
2023-02-19T05:06:12.651Z,65.71
2023-02-19T05:08:40.421Z,65.79
2023-02-19T05:11:10.377Z,65.77
2023-02-19T05:13:38.476Z,65.66
2023-02-19T05:16:15.675Z,65.39
2023-02-19T05:18:44.660Z,65.38
2023-02-19T05:21:12.670Z,65.28
2023-02-19T05:23:39.907Z,65.49
2023-02-19T05:26:09.282Z,65.87
2023-02-19T05:28:36.407Z,65.98
2023-02-19T05:31:06.186Z,66.03
2023-02-19T05:33:33.364Z,66.13
2023-02-19T05:36:08.474Z,66.02
2023-02-19T05:38:36.412Z,65.84
2023-02-19T05:41:19.564Z,65.57
2023-02-19T05:43:48.269Z,64.99
2023-02-19T05:46:19.089Z,64.55
2023-02-19T05:48:47.434Z,64.02
2023-02-19T05:51:16.951Z,63.96
2023-02-19T05:53:45.072Z,63.85
2023-02-19T05:56:32.146Z,63.92
2023-02-19T05:59:03.409Z,63.92
2023-02-19T06:01:30.956Z,64.04
2023-02-19T06:03:58.120Z,63.86
2023-02-19T06:06:27.663Z,63.91
2023-02-19T06:08:54.999Z,63.76
2023-02-19T06:11:23.789Z,63.63
2023-02-19T06:13:51.220Z,63.62
2023-02-19T06:16:18.628Z,63.50
2023-02-19T06:18:45.733Z,63.56
2023-02-19T06:21:14.462Z,63.55
2023-02-19T06:23:42.281Z,63.24
2023-02-19T06:26:12.464Z,63.04
2023-02-19T06:28:40.494Z,62.95
2023-02-19T06:31:09.226Z,62.67
2023-02-19T06:33:39.902Z,62.35
2023-02-19T06:36:10.641Z,62.08
2023-02-19T06:38:37.620Z,61.72
2023-02-19T06:41:05.911Z,61.58
2023-02-19T06:43:34.106Z,61.68
2023-02-19T06:46:03.136Z,61.75
2023-02-19T06:48:31.739Z,61.28
2023-02-19T06:50:59.257Z,61.05
2023-02-19T06:53:26.328Z,60.76
2023-02-19T06:56:04.754Z,60.65
2023-02-19T06:58:33.122Z,60.47
2023-02-19T07:01:00.134Z,60.06
2023-02-19T07:03:27.247Z,60.01
2023-02-19T07:05:54.538Z,60.08
2023-02-19T07:08:21.548Z,60.51
2023-02-19T07:10:56.780Z,60.59
2023-02-19T07:13:25.097Z,59.94
2023-02-19T07:15:57.764Z,59.63
2023-02-19T07:18:24.804Z,59.19
2023-02-19T07:20:51.828Z,59.16
2023-02-19T07:23:18.817Z,58.82
2023-02-19T07:25:46.098Z,58.59
2023-02-19T07:28:13.208Z,58.11
2023-02-19T07:30:40.151Z,58.49
2023-02-19T07:33:09.404Z,57.79
2023-02-19T07:35:37.501Z,57.51
2023-02-19T07:38:04.433Z,57.52
2023-02-19T07:40:31.506Z,57.32
2023-02-19T07:43:00.017Z,57.19
2023-02-19T07:45:27.737Z,56.90
2023-02-19T07:47:54.780Z,57.03
2023-02-19T07:50:21.856Z,56.87
2023-02-19T07:52:48.858Z,56.60
2023-02-19T07:55:16.323Z,56.28
2023-02-19T07:57:43.398Z,56.13
2023-02-19T08:00:10.899Z,56.09
2023-02-19T08:02:59.411Z,56.03
2023-02-19T08:05:28.437Z,55.79
2023-02-19T08:07:55.716Z,55.60
2023-02-19T08:10:41.571Z,55.71
2023-02-19T08:13:19.955Z,55.81
2023-02-19T08:15:47.425Z,55.13
2023-02-19T08:18:18.345Z,54.72
2023-02-19T08:20:45.652Z,54.79
2023-02-19T08:23:13.602Z,54.29
2023-02-19T08:25:41.455Z,54.13
2023-02-19T08:28:10.545Z,53.99
2023-02-19T08:30:39.435Z,53.44
2023-02-19T08:33:07.967Z,52.91
2023-02-19T08:35:36.161Z,52.84
2023-02-19T08:38:04.192Z,52.45
2023-02-19T08:40:32.071Z,52.66
2023-02-19T08:43:18.767Z,52.47
2023-02-19T08:45:46.966Z,52.36
2023-02-19T08:48:14.460Z,52.17
2023-02-19T08:50:41.510Z,51.54
2023-02-19T08:53:09.427Z,50.52
2023-02-19T08:55:38.040Z,50.31
2023-02-19T08:58:04.996Z,49.93
2023-02-19T09:00:32.208Z,50.11
2023-02-19T09:02:59.422Z,50.27
2023-02-19T09:05:26.545Z,49.96
2023-02-19T09:07:53.854Z,49.51
2023-02-19T09:10:20.832Z,49.39
2023-02-19T09:12:47.995Z,49.21
2023-02-19T09:15:15.066Z,49.05
2023-02-19T09:17:42.163Z,47.93
2023-02-19T09:20:10.075Z,47.62
2023-02-19T09:22:37.115Z,47.01
2023-02-19T09:25:04.377Z,46.73
2023-02-19T09:27:31.753Z,46.65
2023-02-19T09:29:58.862Z,45.97
2023-02-19T09:32:25.927Z,45.26
2023-02-19T09:34:52.942Z,45.38
2023-02-19T09:37:20.039Z,45.01
2023-02-19T09:39:47.064Z,44.63
2023-02-19T09:42:30.520Z,44.33
2023-02-19T09:45:01.091Z,44.08
2023-02-19T09:47:30.986Z,44.36
2023-02-19T09:50:07.222Z,44.51
2023-02-19T09:52:55.668Z,44.48
2023-02-19T09:55:33.989Z,44.43
2023-02-19T09:58:08.086Z,44.38
2023-02-19T10:00:36.346Z,44.60
2023-02-19T10:03:16.612Z,44.52
2023-02-19T10:05:43.685Z,44.63
2023-02-19T10:08:17.659Z,44.58
2023-02-19T10:10:44.862Z,43.87
2023-02-19T10:13:19.656Z,44.16
2023-02-19T10:15:50.617Z,44.09
2023-02-19T10:18:24.232Z,43.60
2023-02-19T10:20:52.493Z,43.66
2023-02-19T10:23:20.227Z,44.10
2023-02-19T10:25:59.598Z,44.57
2023-02-19T10:28:33.508Z,45.16
2023-02-19T10:31:03.279Z,44.45
2023-02-19T10:33:30.518Z,44.12
2023-02-19T10:36:01.730Z,44.48
2023-02-19T10:38:34.757Z,44.48
2023-02-19T10:41:05.881Z,44.85
2023-02-19T10:43:39.343Z,44.86
2023-02-19T10:46:18.775Z,44.70
2023-02-19T10:48:52.141Z,44.60
2023-02-19T10:51:24.881Z,44.50
2023-02-19T10:54:23.076Z,44.06
2023-02-19T10:56:50.207Z,43.39
2023-02-19T10:59:28.466Z,44.13
2023-02-19T11:01:58.481Z,44.29
2023-02-19T11:04:36.841Z,44.21
2023-02-19T11:07:14.210Z,44.78
2023-02-19T11:09:44.967Z,45.16
2023-02-19T11:12:25.257Z,45.53
2023-02-19T11:14:52.600Z,45.59
2023-02-19T11:17:30.179Z,45.78
2023-02-19T11:20:04.139Z,46.18
2023-02-19T11:22:33.754Z,46.80
2023-02-19T11:25:10.056Z,47.08
2023-02-19T11:28:13.475Z,47.23
2023-02-19T11:30:45.125Z,47.66
2023-02-19T11:33:26.674Z,47.75
2023-02-19T11:36:00.112Z,48.12
2023-02-19T11:38:27.475Z,48.47
2023-02-19T11:41:23.859Z,48.52
2023-02-19T11:44:16.210Z,48.68
2023-02-19T11:46:59.004Z,48.49
2023-02-19T11:49:51.484Z,48.63
2023-02-19T11:52:30.676Z,49.07
2023-02-19T11:55:12.890Z,49.17
2023-02-19T11:58:34.948Z,49.21
2023-02-19T12:01:15.436Z,49.29
2023-02-19T12:03:48.523Z,48.79
2023-02-19T12:06:18.335Z,47.92
2023-02-19T12:09:15.680Z,47.83
2023-02-19T12:12:07.296Z,47.89
2023-02-19T12:14:58.340Z,47.58
2023-02-19T12:18:03.623Z,48.02
2023-02-19T12:21:02.337Z,46.34
2023-02-19T12:24:01.891Z,45.96
2023-02-19T12:26:33.667Z,45.31
2023-02-19T12:29:37.824Z,45.24
2023-02-19T12:32:34.556Z,45.32
2023-02-19T12:35:26.076Z,45.05
2023-02-19T12:38:08.952Z,44.94
2023-02-19T12:41:09.897Z,44.94
2023-02-19T12:43:42.455Z,45.00
2023-02-19T12:46:20.883Z,45.46
2023-02-19T12:49:11.437Z,46.08
2023-02-19T12:52:00.084Z,46.81
2023-02-19T12:54:45.394Z,47.76
2023-02-19T12:57:20.405Z,48.51
2023-02-19T13:00:28.655Z,50.13
2023-02-19T13:02:59.879Z,51.97
2023-02-19T13:05:49.926Z,54.11
2023-02-19T13:08:26.053Z,55.51
2023-02-19T13:11:05.444Z,55.98
2023-02-19T13:13:41.806Z,56.36
2023-02-19T13:16:17.336Z,57.59
2023-02-19T13:18:53.877Z,57.66
2023-02-19T13:21:53.532Z,58.18
2023-02-19T13:24:25.941Z,58.58
2023-02-19T13:27:11.893Z,59.40
2023-02-19T13:29:57.024Z,60.26
2023-02-19T13:32:48.311Z,61.06
2023-02-19T13:35:41.332Z,61.11
2023-02-19T13:38:12.035Z,60.93
2023-02-19T13:40:41.970Z,60.77
2023-02-19T13:43:29.216Z,61.16
2023-02-19T13:45:59.845Z,60.76
2023-02-19T13:48:31.581Z,59.69
2023-02-19T13:51:21.026Z,58.98
2023-02-19T13:53:59.597Z,57.98
2023-02-19T13:56:29.711Z,58.12
2023-02-19T13:58:56.704Z,57.54
2023-02-19T14:01:57.813Z,57.79
2023-02-19T14:04:52.357Z,58.19
2023-02-19T14:07:32.762Z,58.54
2023-02-19T14:10:01.349Z,58.78
2023-02-19T14:12:36.650Z,59.20
2023-02-19T14:15:34.708Z,59.42
2023-02-19T14:18:02.621Z,59.41
2023-02-19T14:20:41.543Z,58.79
2023-02-19T14:23:16.112Z,58.37
2023-02-19T14:25:53.124Z,57.89
2023-02-19T14:28:29.523Z,57.47
2023-02-19T14:31:08.615Z,57.59
2023-02-19T14:33:44.420Z,57.74
2023-02-19T14:36:17.447Z,57.94
2023-02-19T14:38:56.912Z,58.30
2023-02-19T14:41:25.577Z,58.47
2023-02-19T14:43:55.945Z,58.67
2023-02-19T14:46:33.893Z,58.35
2023-02-19T14:49:13.272Z,58.24
2023-02-19T14:51:43.642Z,58.03
2023-02-19T14:54:18.754Z,57.48
2023-02-19T14:56:51.251Z,57.19
2023-02-19T14:59:24.725Z,56.68
2023-02-19T15:02:01.351Z,56.95
2023-02-19T15:04:34.292Z,56.41
2023-02-19T15:07:06.706Z,56.17
2023-02-19T15:09:39.594Z,56.16
2023-02-19T15:12:07.486Z,55.83
2023-02-19T15:14:34.609Z,55.70
2023-02-19T15:17:04.928Z,55.75
2023-02-19T15:19:36.940Z,55.69
2023-02-19T15:22:04.277Z,55.35
2023-02-19T15:24:32.215Z,55.72
2023-02-19T15:26:59.312Z,55.85
2023-02-19T15:29:27.884Z,55.80
2023-02-19T15:31:57.564Z,56.31
2023-02-19T15:34:30.834Z,56.07
2023-02-19T15:37:02.341Z,56.29
2023-02-19T15:39:39.321Z,56.31
2023-02-19T15:42:09.375Z,57.79
2023-02-19T15:44:56.460Z,59.33
2023-02-19T15:47:27.732Z,61.46
2023-02-19T15:50:13.327Z,62.41
2023-02-19T15:52:47.594Z,63.75
2023-02-19T15:55:35.479Z,65.23
2023-02-19T15:58:17.640Z,66.76
2023-02-19T16:00:46.794Z,67.78
2023-02-19T16:03:22.365Z,68.82
2023-02-19T16:06:15.524Z,69.26
2023-02-19T16:08:45.051Z,69.72
2023-02-19T16:11:30.382Z,70.08
2023-02-19T16:14:34.870Z,70.86
2023-02-19T16:17:28.312Z,71.84
2023-02-19T16:19:58.144Z,72.12
2023-02-19T16:22:28.276Z,72.37
2023-02-19T16:25:04.791Z,72.45
2023-02-19T16:27:38.156Z,72.89
2023-02-19T16:30:29.089Z,73.19
2023-02-19T16:33:34.190Z,74.03
2023-02-19T16:36:22.433Z,75.08
2023-02-19T16:39:07.928Z,75.66
2023-02-19T16:41:47.470Z,75.49
2023-02-19T16:44:20.674Z,75.46
2023-02-19T16:46:57.913Z,75.25
2023-02-19T16:49:25.312Z,75.03
2023-02-19T16:51:53.281Z,75.15
2023-02-19T16:54:20.462Z,75.19
2023-02-19T16:56:47.880Z,75.35
2023-02-19T16:59:15.209Z,75.42
2023-02-19T17:01:42.527Z,75.69
2023-02-19T17:04:11.764Z,75.48
2023-02-19T17:06:38.961Z,75.38
2023-02-19T17:09:08.025Z,75.69
2023-02-19T17:11:35.775Z,76.21
2023-02-19T17:14:03.446Z,76.33
2023-02-19T17:16:40.722Z,76.36
2023-02-19T17:19:18.843Z,76.58
2023-02-19T17:21:46.802Z,76.44
2023-02-19T17:24:14.148Z,76.52
2023-02-19T17:26:41.949Z,76.61
2023-02-19T17:29:14.290Z,76.47
2023-02-19T17:31:41.782Z,76.17
2023-02-19T17:34:09.301Z,76.14
2023-02-19T17:36:37.604Z,76.05
2023-02-19T17:39:11.447Z,76.10
2023-02-19T17:41:38.478Z,75.67
2023-02-19T17:44:12.969Z,74.29
2023-02-19T17:46:40.351Z,72.80
2023-02-19T17:49:10.256Z,70.78
2023-02-19T17:51:38.727Z,69.65
2023-02-19T17:54:08.445Z,69.10
2023-02-19T17:56:35.997Z,68.60
2023-02-19T17:59:03.313Z,68.81
2023-02-19T18:01:30.434Z,68.79
2023-02-19T18:03:57.774Z,68.18
2023-02-19T18:06:25.286Z,67.55
2023-02-19T18:08:53.398Z,67.36
2023-02-19T18:11:22.421Z,67.85
2023-02-19T18:13:51.129Z,68.27
2023-02-19T18:16:18.693Z,68.18
2023-02-19T18:18:45.900Z,69.70
2023-02-19T18:21:14.667Z,70.61
2023-02-19T18:23:42.570Z,69.98
2023-02-19T18:26:30.028Z,70.23
2023-02-19T18:29:00.488Z,70.77
2023-02-19T18:31:37.355Z,70.85
2023-02-19T18:34:05.460Z,70.32
2023-02-19T18:36:52.530Z,69.73
2023-02-19T18:39:21.470Z,67.47
2023-02-19T18:41:51.598Z,64.88
2023-02-19T18:44:34.387Z,64.92
2023-02-19T18:47:20.136Z,65.16
2023-02-19T18:49:49.814Z,66.40
2023-02-19T18:52:21.694Z,67.37
2023-02-19T18:54:51.122Z,67.67
2023-02-19T18:57:22.171Z,68.80
2023-02-19T18:59:50.283Z,70.15
2023-02-19T19:02:18.663Z,71.72
2023-02-19T19:04:51.005Z,72.89
2023-02-19T19:07:18.973Z,74.14
2023-02-19T19:09:46.825Z,75.56
2023-02-19T19:12:16.352Z,76.54
2023-02-19T19:14:45.022Z,77.99
2023-02-19T19:17:22.964Z,79.19
2023-02-19T19:19:55.992Z,79.66
2023-02-19T19:22:34.024Z,80.66
2023-02-19T19:25:26.766Z,81.32
2023-02-19T19:27:57.138Z,82.33
2023-02-19T19:30:24.527Z,82.47
2023-02-19T19:32:52.477Z,82.64
2023-02-19T19:35:20.987Z,82.98
2023-02-19T19:37:49.469Z,83.37
2023-02-19T19:40:18.312Z,83.26
2023-02-19T19:42:52.047Z,83.54
2023-02-19T19:45:19.512Z,83.73
2023-02-19T19:47:48.388Z,84.03
2023-02-19T19:50:18.087Z,84.23
2023-02-19T19:52:46.837Z,84.15
2023-02-19T19:55:15.584Z,84.61
2023-02-19T19:57:43.459Z,84.78
2023-02-19T20:00:17.281Z,84.91
2023-02-19T20:02:48.868Z,85.34
2023-02-19T20:05:19.278Z,85.00
2023-02-19T20:07:46.748Z,84.93
2023-02-19T20:10:16.761Z,84.79
2023-02-19T20:12:47.194Z,84.62
2023-02-19T20:15:29.833Z,84.98
2023-02-19T20:18:02.756Z,85.06
2023-02-19T20:20:36.788Z,85.10
2023-02-19T20:23:05.455Z,85.15
2023-02-19T20:25:32.688Z,85.30
2023-02-19T20:28:00.098Z,85.20
2023-02-19T20:30:27.759Z,85.10
2023-02-19T20:32:55.818Z,85.08
2023-02-19T20:35:27.907Z,84.87
2023-02-19T20:38:38.752Z,84.57
2023-02-19T20:41:38.307Z,84.87
2023-02-19T20:44:07.820Z,84.97
2023-02-19T20:46:41.755Z,85.05
2023-02-19T20:49:10.407Z,85.24
2023-02-19T20:51:45.830Z,85.57
2023-02-19T20:54:13.597Z,85.61
2023-02-19T20:56:48.178Z,85.60
2023-02-19T20:59:16.742Z,85.13
2023-02-19T21:01:44.372Z,85.45
2023-02-19T21:04:11.864Z,85.50
2023-02-19T21:06:39.384Z,85.62
2023-02-19T21:09:07.558Z,85.46
2023-02-19T21:11:35.964Z,85.50
2023-02-19T21:14:04.308Z,85.41
2023-02-19T21:16:32.500Z,85.74
2023-02-19T21:19:00.906Z,85.47
2023-02-19T21:21:30.674Z,85.82
2023-02-19T21:23:59.827Z,85.18
2023-02-19T21:26:40.663Z,84.91
2023-02-19T21:29:10.533Z,83.77
2023-02-19T21:31:40.232Z,82.03
2023-02-19T21:34:12.834Z,81.94
2023-02-19T21:36:41.130Z,80.71
2023-02-19T21:39:09.769Z,80.91
2023-02-19T21:41:40.259Z,80.17
2023-02-19T21:44:08.706Z,78.87
2023-02-19T21:46:38.385Z,78.42
2023-02-19T21:49:14.553Z,78.10
2023-02-19T21:51:49.140Z,78.50
2023-02-19T21:54:21.204Z,79.03
2023-02-19T21:56:52.722Z,79.05
2023-02-19T21:59:23.776Z,78.16
2023-02-19T22:01:53.563Z,78.63
2023-02-19T22:04:23.881Z,77.99
2023-02-19T22:06:55.019Z,77.03
2023-02-19T22:09:24.822Z,76.73
2023-02-19T22:11:52.584Z,76.50
2023-02-19T22:14:19.849Z,77.15
2023-02-19T22:16:47.566Z,76.82
2023-02-19T22:19:15.405Z,77.42
2023-02-19T22:21:44.327Z,77.74
2023-02-19T22:24:19.797Z,77.67
2023-02-19T22:26:49.936Z,78.08
2023-02-19T22:29:17.018Z,78.48
2023-02-19T22:31:44.220Z,78.97
2023-02-19T22:34:11.598Z,79.49
2023-02-19T22:36:39.792Z,79.84
2023-02-19T22:39:10.193Z,79.96
2023-02-19T22:41:42.219Z,80.08
2023-02-19T22:44:10.242Z,80.03
2023-02-19T22:46:37.929Z,80.27
2023-02-19T22:49:05.941Z,80.60
2023-02-19T22:51:34.939Z,81.17
2023-02-19T22:54:02.221Z,81.61
2023-02-19T22:56:29.438Z,82.18
2023-02-19T22:58:57.731Z,82.18
2023-02-19T23:01:25.293Z,81.40
2023-02-19T23:03:55.225Z,81.14
2023-02-19T23:06:29.268Z,80.98
2023-02-19T23:08:58.010Z,81.01
2023-02-19T23:11:29.195Z,81.19
2023-02-19T23:13:56.922Z,81.14
2023-02-19T23:16:24.436Z,80.76
2023-02-19T23:18:51.632Z,80.53
2023-02-19T23:21:19.953Z,80.19
2023-02-19T23:23:47.160Z,80.39
2023-02-19T23:26:15.659Z,80.44
2023-02-19T23:28:44.504Z,80.50
2023-02-19T23:31:13.366Z,80.48
2023-02-19T23:33:41.770Z,80.09
2023-02-19T23:36:09.885Z,79.83
2023-02-19T23:38:37.287Z,79.77
2023-02-19T23:41:12.214Z,79.61
2023-02-19T23:43:39.994Z,79.39
2023-02-19T23:46:08.148Z,78.68
2023-02-19T23:48:35.348Z,78.29
2023-02-19T23:51:02.532Z,78.26
2023-02-19T23:53:30.588Z,78.21
2023-02-19T23:55:58.494Z,78.36
2023-02-19T23:58:27.432Z,78.34
